sensor_id;sensor_type;location;lat;lon;timestamp;temperature;humidity
15765;DHT22;7983;50.744;7.086;2022-12-18T00:01:21;-3.50;99.90
15765;DHT22;7983;50.744;7.086;2022-12-18T00:03:48;-3.50;99.90
15765;DHT22;7983;50.744;7.086;2022-12-18T00:06:14;-3.60;99.90
15765;DHT22;7983;50.744;7.086;2022-12-18T00:08:41;-3.60;99.90
15765;DHT22;7983;50.744;7.086;2022-12-18T00:11:11;-3.60;99.90
15765;DHT22;7983;50.744;7.086;2022-12-18T00:13:37;-3.60;99.90
15765;DHT22;7983;50.744;7.086;2022-12-18T00:16:08;-3.60;99.90
15765;DHT22;7983;50.744;7.086;2022-12-18T00:18:34;-3.70;99.90
15765;DHT22;7983;50.744;7.086;2022-12-18T00:21:06;-3.70;99.90
15765;DHT22;7983;50.744;7.086;2022-12-18T00:23:33;-3.80;99.90
15765;DHT22;7983;50.744;7.086;2022-12-18T00:26:04;-3.80;99.90
15765;DHT22;7983;50.744;7.086;2022-12-18T00:28:35;-3.90;99.90
15765;DHT22;7983;50.744;7.086;2022-12-18T00:31:10;-3.90;99.90
15765;DHT22;7983;50.744;7.086;2022-12-18T00:33:37;-3.90;99.90
15765;DHT22;7983;50.744;7.086;2022-12-18T00:36:05;-3.90;99.90
15765;DHT22;7983;50.744;7.086;2022-12-18T00:38:31;-4.00;99.90
15765;DHT22;7983;50.744;7.086;2022-12-18T00:40:57;-4.00;99.90
15765;DHT22;7983;50.744;7.086;2022-12-18T00:43:22;-4.00;99.90
15765;DHT22;7983;50.744;7.086;2022-12-18T00:45:50;-4.00;99.90
15765;DHT22;7983;50.744;7.086;2022-12-18T00:48:18;-4.10;99.90
15765;DHT22;7983;50.744;7.086;2022-12-18T00:50:44;-4.10;99.90
15765;DHT22;7983;50.744;7.086;2022-12-18T00:53:15;-4.10;99.90
15765;DHT22;7983;50.744;7.086;2022-12-18T00:55:46;-4.10;99.90
15765;DHT22;7983;50.744;7.086;2022-12-18T00:58:13;-4.10;99.90
15765;DHT22;7983;50.744;7.086;2022-12-18T01:00:39;-4.10;99.90
15765;DHT22;7983;50.744;7.086;2022-12-18T01:03:05;-4.10;99.90
15765;DHT22;7983;50.744;7.086;2022-12-18T01:05:31;-4.10;99.90
15765;DHT22;7983;50.744;7.086;2022-12-18T01:07:57;-4.20;99.90
15765;DHT22;7983;50.744;7.086;2022-12-18T01:10:23;-4.20;99.90
15765;DHT22;7983;50.744;7.086;2022-12-18T01:12:50;-4.20;99.90
15765;DHT22;7983;50.744;7.086;2022-12-18T01:15:16;-4.20;99.90
15765;DHT22;7983;50.744;7.086;2022-12-18T01:17:44;-4.20;99.90
15765;DHT22;7983;50.744;7.086;2022-12-18T01:20:12;-4.20;99.90
15765;DHT22;7983;50.744;7.086;2022-12-18T01:22:38;-4.20;99.90
15765;DHT22;7983;50.744;7.086;2022-12-18T01:25:04;-4.20;99.90
15765;DHT22;7983;50.744;7.086;2022-12-18T01:27:31;-4.30;99.90
15765;DHT22;7983;50.744;7.086;2022-12-18T01:29:58;-4.30;99.90
15765;DHT22;7983;50.744;7.086;2022-12-18T01:32:23;-4.30;99.90
15765;DHT22;7983;50.744;7.086;2022-12-18T01:34:49;-4.30;99.90
15765;DHT22;7983;50.744;7.086;2022-12-18T01:37:14;-4.30;99.90
15765;DHT22;7983;50.744;7.086;2022-12-18T01:39:45;-4.40;99.90
15765;DHT22;7983;50.744;7.086;2022-12-18T01:42:15;-4.40;99.90
15765;DHT22;7983;50.744;7.086;2022-12-18T01:47:41;-4.30;99.90
15765;DHT22;7983;50.744;7.086;2022-12-18T01:50:25;-4.40;99.90
15765;DHT22;7983;50.744;7.086;2022-12-18T01:55:45;-4.40;99.90
15765;DHT22;7983;50.744;7.086;2022-12-18T01:58:12;-4.40;99.90
15765;DHT22;7983;50.744;7.086;2022-12-18T02:00:38;-4.40;99.90
15765;DHT22;7983;50.744;7.086;2022-12-18T02:03:03;-4.50;99.90
15765;DHT22;7983;50.744;7.086;2022-12-18T02:05:47;-4.50;99.90
15765;DHT22;7983;50.744;7.086;2022-12-18T02:16:24;-4.50;99.90
15765;DHT22;7983;50.744;7.086;2022-12-18T02:18:55;-4.50;99.90
15765;DHT22;7983;50.744;7.086;2022-12-18T02:27:00;-4.60;99.90
15765;DHT22;7983;50.744;7.086;2022-12-18T02:29:34;-4.60;99.90
15765;DHT22;7983;50.744;7.086;2022-12-18T02:32:10;-4.60;99.90
15765;DHT22;7983;50.744;7.086;2022-12-18T02:34:42;-4.50;99.90
15765;DHT22;7983;50.744;7.086;2022-12-18T02:37:13;-4.60;99.90
15765;DHT22;7983;50.744;7.086;2022-12-18T02:39:42;-4.60;99.90
15765;DHT22;7983;50.744;7.086;2022-12-18T02:42:09;-4.60;99.90
15765;DHT22;7983;50.744;7.086;2022-12-18T02:44:42;-4.60;99.90
15765;DHT22;7983;50.744;7.086;2022-12-18T02:47:13;-4.60;99.90
15765;DHT22;7983;50.744;7.086;2022-12-18T02:55:26;-4.60;99.90
15765;DHT22;7983;50.744;7.086;2022-12-18T03:00:22;-4.60;99.90
15765;DHT22;7983;50.744;7.086;2022-12-18T03:05:31;-4.60;99.90
15765;DHT22;7983;50.744;7.086;2022-12-18T03:08:05;-4.60;99.90
15765;DHT22;7983;50.744;7.086;2022-12-18T03:10:37;-4.60;99.90
15765;DHT22;7983;50.744;7.086;2022-12-18T03:13:07;-4.60;99.90
15765;DHT22;7983;50.744;7.086;2022-12-18T03:15:48;-4.60;99.90
15765;DHT22;7983;50.744;7.086;2022-12-18T03:18:34;-4.70;99.90
15765;DHT22;7983;50.744;7.086;2022-12-18T03:21:04;-4.70;99.90
15765;DHT22;7983;50.744;7.086;2022-12-18T03:23:42;-4.60;99.90
15765;DHT22;7983;50.744;7.086;2022-12-18T03:26:10;-4.60;99.90
15765;DHT22;7983;50.744;7.086;2022-12-18T03:28:42;-4.70;99.90
15765;DHT22;7983;50.744;7.086;2022-12-18T03:31:12;-4.70;99.90
15765;DHT22;7983;50.744;7.086;2022-12-18T03:33:53;-4.70;99.90
15765;DHT22;7983;50.744;7.086;2022-12-18T03:36:19;-4.70;99.90
15765;DHT22;7983;50.744;7.086;2022-12-18T03:38:45;-4.70;99.90
15765;DHT22;7983;50.744;7.086;2022-12-18T03:41:28;-4.70;99.90
15765;DHT22;7983;50.744;7.086;2022-12-18T03:49:40;-4.80;99.90
15765;DHT22;7983;50.744;7.086;2022-12-18T03:54:49;-4.80;99.90
15765;DHT22;7983;50.744;7.086;2022-12-18T03:57:24;-4.80;99.90
15765;DHT22;7983;50.744;7.086;2022-12-18T03:59:58;-4.80;99.90
15765;DHT22;7983;50.744;7.086;2022-12-18T04:02:32;-4.80;99.90
15765;DHT22;7983;50.744;7.086;2022-12-18T04:05:02;-4.70;99.90
15765;DHT22;7983;50.744;7.086;2022-12-18T04:07:28;-4.80;99.90
15765;DHT22;7983;50.744;7.086;2022-12-18T04:09:56;-4.80;99.90
15765;DHT22;7983;50.744;7.086;2022-12-18T04:12:29;-4.80;99.90
15765;DHT22;7983;50.744;7.086;2022-12-18T04:14:59;-4.80;99.90
15765;DHT22;7983;50.744;7.086;2022-12-18T04:17:25;-4.80;99.90
15765;DHT22;7983;50.744;7.086;2022-12-18T04:19:53;-4.90;99.90
15765;DHT22;7983;50.744;7.086;2022-12-18T04:22:21;-4.90;99.90
15765;DHT22;7983;50.744;7.086;2022-12-18T04:24:46;-4.90;99.90
15765;DHT22;7983;50.744;7.086;2022-12-18T04:27:14;-4.90;99.90
15765;DHT22;7983;50.744;7.086;2022-12-18T04:29:40;-4.90;99.90
15765;DHT22;7983;50.744;7.086;2022-12-18T04:32:06;-4.90;99.90
15765;DHT22;7983;50.744;7.086;2022-12-18T04:34:32;-4.90;99.90
15765;DHT22;7983;50.744;7.086;2022-12-18T04:36:57;-4.90;99.90
15765;DHT22;7983;50.744;7.086;2022-12-18T04:39:25;-4.80;99.90
15765;DHT22;7983;50.744;7.086;2022-12-18T04:41:51;-4.90;99.90
15765;DHT22;7983;50.744;7.086;2022-12-18T04:44:19;-4.80;99.90
15765;DHT22;7983;50.744;7.086;2022-12-18T04:46:44;-4.80;99.90
15765;DHT22;7983;50.744;7.086;2022-12-18T04:49:12;-4.80;99.90
15765;DHT22;7983;50.744;7.086;2022-12-18T04:51:38;-4.90;99.90
15765;DHT22;7983;50.744;7.086;2022-12-18T04:54:06;-4.90;99.90
15765;DHT22;7983;50.744;7.086;2022-12-18T04:56:32;-4.90;99.90
15765;DHT22;7983;50.744;7.086;2022-12-18T04:58:57;-4.90;99.90
15765;DHT22;7983;50.744;7.086;2022-12-18T05:01:23;-4.90;99.90
15765;DHT22;7983;50.744;7.086;2022-12-18T05:03:50;-4.90;99.90
15765;DHT22;7983;50.744;7.086;2022-12-18T05:06:16;-4.90;99.90
15765;DHT22;7983;50.744;7.086;2022-12-18T05:08:46;-4.90;99.90
15765;DHT22;7983;50.744;7.086;2022-12-18T05:11:13;-4.90;99.90
15765;DHT22;7983;50.744;7.086;2022-12-18T05:13:41;-4.90;99.90
15765;DHT22;7983;50.744;7.086;2022-12-18T05:16:07;-5.00;99.90
15765;DHT22;7983;50.744;7.086;2022-12-18T05:18:32;-4.90;99.90
15765;DHT22;7983;50.744;7.086;2022-12-18T05:21:00;-5.00;99.90
15765;DHT22;7983;50.744;7.086;2022-12-18T05:23:26;-5.00;99.90
15765;DHT22;7983;50.744;7.086;2022-12-18T05:26:00;-5.00;99.90
15765;DHT22;7983;50.744;7.086;2022-12-18T05:28:30;-5.00;99.90
15765;DHT22;7983;50.744;7.086;2022-12-18T05:31:01;-5.00;99.90
15765;DHT22;7983;50.744;7.086;2022-12-18T05:33:32;-5.00;99.90
15765;DHT22;7983;50.744;7.086;2022-12-18T05:36:02;-5.00;99.90
15765;DHT22;7983;50.744;7.086;2022-12-18T05:38:29;-5.00;99.90
15765;DHT22;7983;50.744;7.086;2022-12-18T05:40:58;-5.00;99.90
15765;DHT22;7983;50.744;7.086;2022-12-18T05:43:27;-5.00;99.90
15765;DHT22;7983;50.744;7.086;2022-12-18T05:45:53;-5.00;99.90
15765;DHT22;7983;50.744;7.086;2022-12-18T05:48:20;-5.00;99.90
15765;DHT22;7983;50.744;7.086;2022-12-18T05:50:48;-5.00;99.90
15765;DHT22;7983;50.744;7.086;2022-12-18T05:53:20;-5.00;99.90
15765;DHT22;7983;50.744;7.086;2022-12-18T05:55:46;-5.00;99.90
15765;DHT22;7983;50.744;7.086;2022-12-18T05:58:15;-5.00;99.90
15765;DHT22;7983;50.744;7.086;2022-12-18T06:00:46;-5.00;99.90
15765;DHT22;7983;50.744;7.086;2022-12-18T06:03:14;-4.90;99.90
15765;DHT22;7983;50.744;7.086;2022-12-18T06:05:44;-5.00;99.90
15765;DHT22;7983;50.744;7.086;2022-12-18T06:08:13;-4.90;99.90
15765;DHT22;7983;50.744;7.086;2022-12-18T06:10:39;-5.00;99.90
15765;DHT22;7983;50.744;7.086;2022-12-18T06:13:08;-4.90;99.90
15765;DHT22;7983;50.744;7.086;2022-12-18T06:15:37;-4.90;99.90
15765;DHT22;7983;50.744;7.086;2022-12-18T06:18:05;-4.90;99.90
15765;DHT22;7983;50.744;7.086;2022-12-18T06:20:33;-4.90;99.90
15765;DHT22;7983;50.744;7.086;2022-12-18T06:23:01;-4.90;99.90
15765;DHT22;7983;50.744;7.086;2022-12-18T06:25:27;-4.90;99.90
15765;DHT22;7983;50.744;7.086;2022-12-18T06:27:55;-4.90;99.90
15765;DHT22;7983;50.744;7.086;2022-12-18T06:30:22;-4.90;99.90
15765;DHT22;7983;50.744;7.086;2022-12-18T06:32:51;-4.90;99.90
15765;DHT22;7983;50.744;7.086;2022-12-18T06:35:16;-4.90;99.90
15765;DHT22;7983;50.744;7.086;2022-12-18T06:37:42;-4.90;99.90
15765;DHT22;7983;50.744;7.086;2022-12-18T06:40:10;-4.90;99.90
15765;DHT22;7983;50.744;7.086;2022-12-18T06:42:35;-4.90;99.90
15765;DHT22;7983;50.744;7.086;2022-12-18T06:45:04;-4.90;99.90
15765;DHT22;7983;50.744;7.086;2022-12-18T06:47:30;-4.80;99.90
15765;DHT22;7983;50.744;7.086;2022-12-18T06:50:00;-4.90;99.90
15765;DHT22;7983;50.744;7.086;2022-12-18T06:52:28;-4.80;99.90
15765;DHT22;7983;50.744;7.086;2022-12-18T06:54:53;-4.80;99.90
15765;DHT22;7983;50.744;7.086;2022-12-18T06:57:19;-4.80;99.90
15765;DHT22;7983;50.744;7.086;2022-12-18T06:59:45;-4.80;99.90
15765;DHT22;7983;50.744;7.086;2022-12-18T07:02:11;-4.70;99.90
15765;DHT22;7983;50.744;7.086;2022-12-18T07:04:40;-4.70;99.90
15765;DHT22;7983;50.744;7.086;2022-12-18T07:07:05;-4.70;99.90
15765;DHT22;7983;50.744;7.086;2022-12-18T07:09:31;-4.70;99.90
15765;DHT22;7983;50.744;7.086;2022-12-18T07:11:57;-4.70;99.90
15765;DHT22;7983;50.744;7.086;2022-12-18T07:14:27;-4.60;99.90
15765;DHT22;7983;50.744;7.086;2022-12-18T07:16:55;-4.60;99.90
15765;DHT22;7983;50.744;7.086;2022-12-18T07:19:21;-4.60;99.90
15765;DHT22;7983;50.744;7.086;2022-12-18T07:21:52;-4.60;99.90
15765;DHT22;7983;50.744;7.086;2022-12-18T07:24:20;-4.60;99.90
15765;DHT22;7983;50.744;7.086;2022-12-18T07:26:48;-4.60;99.90
15765;DHT22;7983;50.744;7.086;2022-12-18T07:29:14;-4.70;99.90
15765;DHT22;7983;50.744;7.086;2022-12-18T07:31:40;-4.70;99.90
15765;DHT22;7983;50.744;7.086;2022-12-18T07:34:05;-4.70;99.90
15765;DHT22;7983;50.744;7.086;2022-12-18T07:36:34;-4.60;99.90
15765;DHT22;7983;50.744;7.086;2022-12-18T07:39:02;-4.60;99.90
15765;DHT22;7983;50.744;7.086;2022-12-18T07:41:30;-4.70;99.90
15765;DHT22;7983;50.744;7.086;2022-12-18T07:43:58;-4.70;99.90
15765;DHT22;7983;50.744;7.086;2022-12-18T07:46:24;-4.70;99.90
15765;DHT22;7983;50.744;7.086;2022-12-18T07:48:50;-4.70;99.90
15765;DHT22;7983;50.744;7.086;2022-12-18T07:51:18;-4.70;99.90
15765;DHT22;7983;50.744;7.086;2022-12-18T07:53:44;-4.70;99.90
15765;DHT22;7983;50.744;7.086;2022-12-18T07:56:12;-4.70;99.90
15765;DHT22;7983;50.744;7.086;2022-12-18T07:58:41;-4.70;99.90
15765;DHT22;7983;50.744;7.086;2022-12-18T08:01:11;-4.70;99.90
15765;DHT22;7983;50.744;7.086;2022-12-18T08:03:38;-4.70;99.90
15765;DHT22;7983;50.744;7.086;2022-12-18T08:06:06;-4.70;99.90
15765;DHT22;7983;50.744;7.086;2022-12-18T08:08:32;-4.70;99.90
15765;DHT22;7983;50.744;7.086;2022-12-18T08:11:00;-4.70;99.90
15765;DHT22;7983;50.744;7.086;2022-12-18T08:13:27;-4.70;99.90
15765;DHT22;7983;50.744;7.086;2022-12-18T08:16:04;-4.60;99.90
15765;DHT22;7983;50.744;7.086;2022-12-18T08:18:35;-4.50;99.90
15765;DHT22;7983;50.744;7.086;2022-12-18T08:21:18;-4.50;99.90
15765;DHT22;7983;50.744;7.086;2022-12-18T08:23:44;-4.50;99.90
15765;DHT22;7983;50.744;7.086;2022-12-18T08:26:11;-4.40;99.90
15765;DHT22;7983;50.744;7.086;2022-12-18T08:28:37;-4.40;99.90
15765;DHT22;7983;50.744;7.086;2022-12-18T08:31:05;-4.30;99.90
15765;DHT22;7983;50.744;7.086;2022-12-18T08:33:34;-4.20;99.90
15765;DHT22;7983;50.744;7.086;2022-12-18T08:36:09;-4.20;99.90
15765;DHT22;7983;50.744;7.086;2022-12-18T08:38:35;-4.10;99.90
15765;DHT22;7983;50.744;7.086;2022-12-18T08:41:06;-4.00;99.90
15765;DHT22;7983;50.744;7.086;2022-12-18T08:43:35;-4.00;99.90
15765;DHT22;7983;50.744;7.086;2022-12-18T08:46:23;-3.90;99.90
15765;DHT22;7983;50.744;7.086;2022-12-18T08:48:54;-3.80;99.90
15765;DHT22;7983;50.744;7.086;2022-12-18T08:51:21;-3.70;99.90
15765;DHT22;7983;50.744;7.086;2022-12-18T08:53:49;-3.70;99.90
15765;DHT22;7983;50.744;7.086;2022-12-18T08:56:15;-3.60;99.90
15765;DHT22;7983;50.744;7.086;2022-12-18T08:58:41;-3.60;99.90
15765;DHT22;7983;50.744;7.086;2022-12-18T09:01:11;-3.50;99.90
15765;DHT22;7983;50.744;7.086;2022-12-18T09:03:38;-3.40;99.90
15765;DHT22;7983;50.744;7.086;2022-12-18T09:06:04;-3.30;99.90
15765;DHT22;7983;50.744;7.086;2022-12-18T09:08:30;-3.30;99.90
15765;DHT22;7983;50.744;7.086;2022-12-18T09:10:55;-3.10;99.90
15765;DHT22;7983;50.744;7.086;2022-12-18T09:13:26;-3.00;99.90
15765;DHT22;7983;50.744;7.086;2022-12-18T09:15:53;-2.90;99.90
15765;DHT22;7983;50.744;7.086;2022-12-18T09:18:21;-2.60;99.90
15765;DHT22;7983;50.744;7.086;2022-12-18T09:20:49;-2.50;99.90
15765;DHT22;7983;50.744;7.086;2022-12-18T09:23:17;-2.30;99.90
15765;DHT22;7983;50.744;7.086;2022-12-18T09:25:45;-2.10;99.90
15765;DHT22;7983;50.744;7.086;2022-12-18T09:28:16;-2.00;99.90
15765;DHT22;7983;50.744;7.086;2022-12-18T09:30:44;-1.90;99.90
15765;DHT22;7983;50.744;7.086;2022-12-18T09:33:10;-1.80;99.90
15765;DHT22;7983;50.744;7.086;2022-12-18T09:35:43;-1.60;99.90
15765;DHT22;7983;50.744;7.086;2022-12-18T09:38:18;-1.60;99.90
15765;DHT22;7983;50.744;7.086;2022-12-18T09:40:59;-1.50;99.90
15765;DHT22;7983;50.744;7.086;2022-12-18T09:43:47;-1.30;99.90
15765;DHT22;7983;50.744;7.086;2022-12-18T09:46:23;-1.20;99.90
15765;DHT22;7983;50.744;7.086;2022-12-18T09:48:57;-1.10;99.90
15765;DHT22;7983;50.744;7.086;2022-12-18T09:51:37;-0.90;99.90
15765;DHT22;7983;50.744;7.086;2022-12-18T09:54:12;-0.90;99.90
15765;DHT22;7983;50.744;7.086;2022-12-18T09:56:42;-0.80;99.90
15765;DHT22;7983;50.744;7.086;2022-12-18T09:59:23;-0.60;99.90
15765;DHT22;7983;50.744;7.086;2022-12-18T10:01:49;-0.60;99.90
15765;DHT22;7983;50.744;7.086;2022-12-18T10:04:17;-0.50;99.90
15765;DHT22;7983;50.744;7.086;2022-12-18T10:23:27;-0.40;99.90
15765;DHT22;7983;50.744;7.086;2022-12-18T10:26:08;-0.40;99.90
15765;DHT22;7983;50.744;7.086;2022-12-18T10:28:37;-0.30;99.90
15765;DHT22;7983;50.744;7.086;2022-12-18T10:31:17;-0.20;99.90
15765;DHT22;7983;50.744;7.086;2022-12-18T10:33:44;-0.20;99.90
15765;DHT22;7983;50.744;7.086;2022-12-18T10:36:12;-0.10;99.90
15765;DHT22;7983;50.744;7.086;2022-12-18T10:38:41;0.00;99.90
15765;DHT22;7983;50.744;7.086;2022-12-18T10:41:26;0.10;99.90
15765;DHT22;7983;50.744;7.086;2022-12-18T10:44:16;0.20;99.90
15765;DHT22;7983;50.744;7.086;2022-12-18T10:46:46;0.30;99.90
15765;DHT22;7983;50.744;7.086;2022-12-18T10:49:27;0.30;99.90
15765;DHT22;7983;50.744;7.086;2022-12-18T10:52:15;0.40;99.90
15765;DHT22;7983;50.744;7.086;2022-12-18T10:55:00;0.30;99.90
15765;DHT22;7983;50.744;7.086;2022-12-18T10:57:32;0.30;99.90
15765;DHT22;7983;50.744;7.086;2022-12-18T11:00:01;0.30;99.90
15765;DHT22;7983;50.744;7.086;2022-12-18T11:02:35;0.50;99.90
15765;DHT22;7983;50.744;7.086;2022-12-18T11:05:03;0.30;99.90
15765;DHT22;7983;50.744;7.086;2022-12-18T11:07:50;0.30;99.90
15765;DHT22;7983;50.744;7.086;2022-12-18T11:10:22;0.30;99.90
15765;DHT22;7983;50.744;7.086;2022-12-18T11:12:49;0.30;99.90
15765;DHT22;7983;50.744;7.086;2022-12-18T11:15:20;0.40;99.90
15765;DHT22;7983;50.744;7.086;2022-12-18T11:17:50;0.30;99.90
15765;DHT22;7983;50.744;7.086;2022-12-18T11:20:27;0.40;99.90
15765;DHT22;7983;50.744;7.086;2022-12-18T11:23:05;0.40;99.90
15765;DHT22;7983;50.744;7.086;2022-12-18T11:25:36;0.40;99.90
15765;DHT22;7983;50.744;7.086;2022-12-18T11:33:46;0.50;99.90
15765;DHT22;7983;50.744;7.086;2022-12-18T11:36:17;0.40;99.90
15765;DHT22;7983;50.744;7.086;2022-12-18T11:38:44;0.40;99.90
15765;DHT22;7983;50.744;7.086;2022-12-18T11:41:24;0.40;99.90
15765;DHT22;7983;50.744;7.086;2022-12-18T11:44:26;0.40;99.90
15765;DHT22;7983;50.744;7.086;2022-12-18T11:47:03;0.30;99.90
15765;DHT22;7983;50.744;7.086;2022-12-18T11:49:34;0.20;99.90
15765;DHT22;7983;50.744;7.086;2022-12-18T11:52:13;0.20;99.90
15765;DHT22;7983;50.744;7.086;2022-12-18T11:54:40;0.20;99.90
15765;DHT22;7983;50.744;7.086;2022-12-18T12:06:39;0.10;99.90
15765;DHT22;7983;50.744;7.086;2022-12-18T12:24:55;-0.20;99.90
15765;DHT22;7983;50.744;7.086;2022-12-18T12:36:00;-0.10;99.90
15765;DHT22;7983;50.744;7.086;2022-12-18T12:38:45;0.00;99.90
15765;DHT22;7983;50.744;7.086;2022-12-18T12:41:22;-0.10;99.90
15765;DHT22;7983;50.744;7.086;2022-12-18T12:44:14;0.00;99.90
15765;DHT22;7983;50.744;7.086;2022-12-18T12:46:43;0.00;99.90
15765;DHT22;7983;50.744;7.086;2022-12-18T12:49:15;0.00;99.90
15765;DHT22;7983;50.744;7.086;2022-12-18T12:51:50;0.10;99.90
15765;DHT22;7983;50.744;7.086;2022-12-18T12:54:23;0.00;99.90
15765;DHT22;7983;50.744;7.086;2022-12-18T13:00:13;0.10;99.90
15765;DHT22;7983;50.744;7.086;2022-12-18T13:03:01;0.10;99.90
15765;DHT22;7983;50.744;7.086;2022-12-18T13:05:55;0.10;99.90
15765;DHT22;7983;50.744;7.086;2022-12-18T13:08:26;0.10;99.90
15765;DHT22;7983;50.744;7.086;2022-12-18T13:10:58;0.20;99.90
15765;DHT22;7983;50.744;7.086;2022-12-18T13:13:54;0.20;99.90
15765;DHT22;7983;50.744;7.086;2022-12-18T13:16:22;0.20;99.90
15765;DHT22;7983;50.744;7.086;2022-12-18T13:18:51;0.30;99.90
15765;DHT22;7983;50.744;7.086;2022-12-18T13:21:29;0.30;99.90
15765;DHT22;7983;50.744;7.086;2022-12-18T13:23:56;0.30;99.90
15765;DHT22;7983;50.744;7.086;2022-12-18T13:28:55;0.40;99.90
15765;DHT22;7983;50.744;7.086;2022-12-18T13:44:34;0.40;99.90
15765;DHT22;7983;50.744;7.086;2022-12-18T13:47:19;0.40;99.90
15765;DHT22;7983;50.744;7.086;2022-12-18T13:49:54;0.30;99.90
15765;DHT22;7983;50.744;7.086;2022-12-18T13:52:25;0.30;99.90
15765;DHT22;7983;50.744;7.086;2022-12-18T13:54:55;0.30;99.90
15765;DHT22;7983;50.744;7.086;2022-12-18T13:57:37;0.30;99.90
15765;DHT22;7983;50.744;7.086;2022-12-18T14:00:35;0.20;99.90
15765;DHT22;7983;50.744;7.086;2022-12-18T14:03:28;0.20;99.90
15765;DHT22;7983;50.744;7.086;2022-12-18T14:05:57;0.50;99.90
15765;DHT22;7983;50.744;7.086;2022-12-18T14:14:32;0.10;99.90
15765;DHT22;7983;50.744;7.086;2022-12-18T14:17:10;0.10;99.90
15765;DHT22;7983;50.744;7.086;2022-12-18T14:19:57;0.20;99.90
15765;DHT22;7983;50.744;7.086;2022-12-18T14:22:45;0.10;99.90
15765;DHT22;7983;50.744;7.086;2022-12-18T14:35:19;-0.10;99.90
15765;DHT22;7983;50.744;7.086;2022-12-18T14:41:41;-0.10;99.90
15765;DHT22;7983;50.744;7.086;2022-12-18T14:44:12;0.00;99.90
15765;DHT22;7983;50.744;7.086;2022-12-18T14:46:50;0.00;99.90
15765;DHT22;7983;50.744;7.086;2022-12-18T14:49:33;-0.10;99.90
15765;DHT22;7983;50.744;7.086;2022-12-18T14:52:02;-0.10;99.90
15765;DHT22;7983;50.744;7.086;2022-12-18T14:54:29;0.20;99.90
15765;DHT22;7983;50.744;7.086;2022-12-18T14:57:31;-0.10;99.90
15765;DHT22;7983;50.744;7.086;2022-12-18T15:13:29;-0.20;99.90
15765;DHT22;7983;50.744;7.086;2022-12-18T15:16:14;-0.20;99.90
15765;DHT22;7983;50.744;7.086;2022-12-18T15:19:07;-0.20;99.90
15765;DHT22;7983;50.744;7.086;2022-12-18T15:21:42;-0.30;99.90
15765;DHT22;7983;50.744;7.086;2022-12-18T15:24:20;-0.20;99.90
15765;DHT22;7983;50.744;7.086;2022-12-18T15:26:48;-0.30;99.90
15765;DHT22;7983;50.744;7.086;2022-12-18T15:29:24;-0.20;99.90
15765;DHT22;7983;50.744;7.086;2022-12-18T15:32:04;-0.20;99.90
15765;DHT22;7983;50.744;7.086;2022-12-18T15:34:33;-0.20;99.90
15765;DHT22;7983;50.744;7.086;2022-12-18T15:37:08;-0.30;99.90
15765;DHT22;7983;50.744;7.086;2022-12-18T15:39:36;-0.30;99.90
15765;DHT22;7983;50.744;7.086;2022-12-18T15:42:19;-0.30;99.90
15765;DHT22;7983;50.744;7.086;2022-12-18T15:45:03;-0.10;99.90
15765;DHT22;7983;50.744;7.086;2022-12-18T15:47:31;-0.30;99.90
15765;DHT22;7983;50.744;7.086;2022-12-18T15:49:58;-0.30;99.90
15765;DHT22;7983;50.744;7.086;2022-12-18T15:52:35;-0.30;99.90
15765;DHT22;7983;50.744;7.086;2022-12-18T15:55:27;-0.30;99.90
15765;DHT22;7983;50.744;7.086;2022-12-18T15:58:10;-0.30;99.90
15765;DHT22;7983;50.744;7.086;2022-12-18T16:00:39;-0.30;99.90
15765;DHT22;7983;50.744;7.086;2022-12-18T16:09:17;-0.30;99.90
15765;DHT22;7983;50.744;7.086;2022-12-18T16:11:43;-0.30;99.90
15765;DHT22;7983;50.744;7.086;2022-12-18T16:17:43;-0.40;99.90
15765;DHT22;7983;50.744;7.086;2022-12-18T16:20:21;-0.40;99.90
15765;DHT22;7983;50.744;7.086;2022-12-18T16:23:10;-0.40;99.90
15765;DHT22;7983;50.744;7.086;2022-12-18T16:25:38;-0.40;99.90
15765;DHT22;7983;50.744;7.086;2022-12-18T16:28:09;-0.40;99.90
15765;DHT22;7983;50.744;7.086;2022-12-18T16:30:35;-0.40;99.90
15765;DHT22;7983;50.744;7.086;2022-12-18T16:33:00;-0.40;99.90
15765;DHT22;7983;50.744;7.086;2022-12-18T16:35:28;-0.40;99.90
15765;DHT22;7983;50.744;7.086;2022-12-18T16:37:57;-0.40;99.90
15765;DHT22;7983;50.744;7.086;2022-12-18T16:40:25;-0.40;99.90
15765;DHT22;7983;50.744;7.086;2022-12-18T16:42:56;-0.40;99.90
15765;DHT22;7983;50.744;7.086;2022-12-18T16:45:21;-0.50;99.90
15765;DHT22;7983;50.744;7.086;2022-12-18T16:47:52;-0.50;99.90
15765;DHT22;7983;50.744;7.086;2022-12-18T16:50:20;-0.50;99.90
15765;DHT22;7983;50.744;7.086;2022-12-18T16:52:48;0.00;99.90
15765;DHT22;7983;50.744;7.086;2022-12-18T17:09:29;-0.50;99.90
15765;DHT22;7983;50.744;7.086;2022-12-18T17:19:15;-0.60;99.90
15765;DHT22;7983;50.744;7.086;2022-12-18T17:35:50;-0.60;99.90
15765;DHT22;7983;50.744;7.086;2022-12-18T17:41:54;-0.60;99.90
15765;DHT22;7983;50.744;7.086;2022-12-18T17:44:22;-0.60;99.90
15765;DHT22;7983;50.744;7.086;2022-12-18T17:47:01;-0.70;99.90
15765;DHT22;7983;50.744;7.086;2022-12-18T17:49:59;-0.60;99.90
15765;DHT22;7983;50.744;7.086;2022-12-18T17:52:31;-0.70;99.90
15765;DHT22;7983;50.744;7.086;2022-12-18T17:58:35;-0.60;99.90
15765;DHT22;7983;50.744;7.086;2022-12-18T18:01:08;-0.60;99.90
15765;DHT22;7983;50.744;7.086;2022-12-18T18:17:07;-0.70;99.90
15765;DHT22;7983;50.744;7.086;2022-12-18T18:19:56;-0.70;99.90
15765;DHT22;7983;50.744;7.086;2022-12-18T18:22:44;-0.70;99.90
15765;DHT22;7983;50.744;7.086;2022-12-18T18:25:10;-0.70;99.90
15765;DHT22;7983;50.744;7.086;2022-12-18T18:30:43;-0.70;99.90
15765;DHT22;7983;50.744;7.086;2022-12-18T18:33:11;-0.70;99.90
15765;DHT22;7983;50.744;7.086;2022-12-18T18:35:41;-0.70;99.90
15765;DHT22;7983;50.744;7.086;2022-12-18T18:38:22;-0.60;99.90
15765;DHT22;7983;50.744;7.086;2022-12-18T18:47:17;-0.60;99.90
15765;DHT22;7983;50.744;7.086;2022-12-18T19:00:59;-0.50;99.90
15765;DHT22;7983;50.744;7.086;2022-12-18T19:04:28;-0.60;99.90
15765;DHT22;7983;50.744;7.086;2022-12-18T19:07:40;-0.50;99.90
15765;DHT22;7983;50.744;7.086;2022-12-18T19:10:48;-0.20;99.90
15765;DHT22;7983;50.744;7.086;2022-12-18T19:17:34;-0.40;99.90
15765;DHT22;7983;50.744;7.086;2022-12-18T19:20:18;-0.40;99.90
15765;DHT22;7983;50.744;7.086;2022-12-18T19:26:33;-0.30;99.90
15765;DHT22;7983;50.744;7.086;2022-12-18T19:29:14;-0.30;99.90
15765;DHT22;7983;50.744;7.086;2022-12-18T19:32:10;-0.20;99.90
15765;DHT22;7983;50.744;7.086;2022-12-18T19:34:46;-0.30;99.90
15765;DHT22;7983;50.744;7.086;2022-12-18T19:40:53;-0.10;99.90
15765;DHT22;7983;50.744;7.086;2022-12-18T19:43:35;-0.10;99.90
15765;DHT22;7983;50.744;7.086;2022-12-18T19:46:34;-0.10;99.90
15765;DHT22;7983;50.744;7.086;2022-12-18T19:59:23;0.00;99.90
15765;DHT22;7983;50.744;7.086;2022-12-18T20:02:32;0.30;99.90
15765;DHT22;7983;50.744;7.086;2022-12-18T20:05:34;0.00;99.90
15765;DHT22;7983;50.744;7.086;2022-12-18T20:11:24;0.00;99.90
15765;DHT22;7983;50.744;7.086;2022-12-18T20:13:50;0.10;99.90
15765;DHT22;7983;50.744;7.086;2022-12-18T20:16:15;0.10;99.90
15765;DHT22;7983;50.744;7.086;2022-12-18T20:18:41;0.10;99.90
15765;DHT22;7983;50.744;7.086;2022-12-18T20:21:07;0.10;99.90
15765;DHT22;7983;50.744;7.086;2022-12-18T20:23:32;0.10;99.90
15765;DHT22;7983;50.744;7.086;2022-12-18T20:25:58;0.20;99.90
15765;DHT22;7983;50.744;7.086;2022-12-18T20:28:27;0.20;99.90
15765;DHT22;7983;50.744;7.086;2022-12-18T20:31:00;0.20;99.90
15765;DHT22;7983;50.744;7.086;2022-12-18T20:33:26;0.20;99.90
15765;DHT22;7983;50.744;7.086;2022-12-18T20:35:52;0.30;99.90
15765;DHT22;7983;50.744;7.086;2022-12-18T20:38:18;0.30;99.90